»·PEaware :: WAT306 E95-KBUR

WAT306 :: E95-KBUR

FLIGHT INFORMATION

Flight Status: Arrived
Operator:
Walker Air Transport
More flights by this operator :: More flights under this callsign
Pilot: Ethan S. (29221)
Aircraft: SOCATA TBM-900
(TBM9)
More flights by this aircraft type
Origin: E95 Benson Mun
United States
Destination: KBUR Bob Hope-Burbank
United States
More flights between these airports :: More routes between these airports
Route: TUS J104 KOFFA PHRED THRNE3
File this flight plan on PilotEdge
Remarks:
Altitude:
(Current/Filed)
30,000ft
Speed:
(Current/Filed)
320kts
Departed: 14-Oct-20 04:05 PM
Arrived: 14-Oct-20 05:41 PM
Distance/Time
Traveled:
423nm/1:36
Distance/Time
To Go:
Arrived

Flight Plot

Page will automatically refresh every two minutes.

Flight plan parsing failed; only flown route is shown


Map Options




Map Legend


Flown Route
Filed Route
Departure Airport
Arrival Airport
Navaid (VOR, NDB)
Fix

Horizontal Profiles

Position Reports

Time Latitude Longitude Heading Altitude Ground
Speed
14-Oct-20 15:57 31.997700 -110.355811 279 3819ft 0kts
14-Oct-20 15:58 31.997700 -110.355811 279 3819ft 0kts
14-Oct-20 15:59 31.997700 -110.355812 279 3819ft 0kts
14-Oct-20 16:00 31.997700 -110.355812 279 3819ft 0kts
14-Oct-20 16:01 31.997700 -110.355812 279 3819ft 0kts
14-Oct-20 16:02 31.998187 -110.355377 103 3815ft 16kts
14-Oct-20 16:03 31.998534 -110.352215 281 3806ft 11kts
14-Oct-20 16:04 31.999727 -110.359726 281 3814ft 96kts
14-Oct-20 16:05 32.007009 -110.401299 284 5478ft 132kts
14-Oct-20 16:06 32.014488 -110.444372 284 7551ft 130kts
14-Oct-20 16:07 32.021893 -110.487072 284 9274ft 133kts
14-Oct-20 16:08 32.029487 -110.530927 283 11363ft 135kts
14-Oct-20 16:09 32.037030 -110.574627 283 13542ft 137kts
14-Oct-20 16:10 32.044786 -110.619665 282 15539ft 141kts
14-Oct-20 16:11 32.053288 -110.669084 281 17061ft 186kts
14-Oct-20 16:12 32.063666 -110.729690 281 19442ft 155kts
14-Oct-20 16:13 32.072098 -110.779015 281 21793ft 154kts
14-Oct-20 16:14 32.080880 -110.830502 280 23832ft 162kts
14-Oct-20 16:15 32.090151 -110.884990 280 26093ft 167kts
14-Oct-20 16:16 32.106917 -110.937900 296 28167ft 176kts
14-Oct-20 16:17 32.132542 -110.989353 295 30039ft 185kts
14-Oct-20 16:18 32.164566 -111.053578 296 30126ft 252kts
14-Oct-20 16:19 32.203037 -111.130701 296 30095ft 276kts
14-Oct-20 16:20 32.244279 -111.213594 296 30079ft 286kts
14-Oct-20 16:21 32.285785 -111.297170 296 30065ft 289kts
14-Oct-20 16:22 32.327633 -111.381638 296 30053ft 290kts
14-Oct-20 16:23 32.370083 -111.467491 296 30052ft 291kts
14-Oct-20 16:24 32.411992 -111.552474 296 30051ft 291kts
14-Oct-20 16:25 32.453614 -111.637064 296 30049ft 291kts
14-Oct-20 16:26 32.494786 -111.720941 296 30048ft 291kts
14-Oct-20 16:27 32.536487 -111.806063 296 30040ft 292kts
14-Oct-20 16:28 32.578250 -111.891529 296 30036ft 292kts
14-Oct-20 16:29 32.619818 -111.976782 296 30036ft 292kts
14-Oct-20 16:30 32.660995 -112.061448 296 30036ft 292kts
14-Oct-20 16:31 32.702207 -112.146375 296 30025ft 292kts
14-Oct-20 16:32 32.743545 -112.231753 296 30008ft 292kts
14-Oct-20 16:34 32.784877 -112.317311 296 29992ft 292kts
14-Oct-20 16:35 32.825952 -112.402553 296 29988ft 291kts
14-Oct-20 16:36 32.866973 -112.487862 296 29988ft 291kts
14-Oct-20 16:37 32.908005 -112.573402 296 29987ft 291kts
14-Oct-20 16:38 32.948983 -112.659057 296 29991ft 291kts
14-Oct-20 16:39 33.002189 -112.734893 309 29992ft 295kts
14-Oct-20 16:40 33.058471 -112.809251 310 29990ft 296kts
14-Oct-20 16:41 33.115579 -112.884837 312 29990ft 300kts
14-Oct-20 16:42 33.172908 -112.960829 312 29991ft 305kts
14-Oct-20 16:43 33.231432 -113.038613 312 29991ft 309kts
14-Oct-20 16:44 33.290176 -113.116870 312 29991ft 311kts
14-Oct-20 16:45 33.349076 -113.195527 312 29991ft 312kts
14-Oct-20 16:46 33.407789 -113.274088 312 29991ft 312kts
14-Oct-20 16:47 33.464145 -113.355007 297 29989ft 313kts
14-Oct-20 16:48 33.489541 -113.457450 286 29991ft 314kts
14-Oct-20 16:49 33.514374 -113.562022 286 29989ft 315kts
14-Oct-20 16:50 33.539200 -113.666860 286 29983ft 315kts
14-Oct-20 16:51 33.563821 -113.771244 286 29979ft 315kts
14-Oct-20 16:52 33.588071 -113.874474 286 29980ft 314kts
14-Oct-20 16:52 33.608194 -113.960453 286 29981ft 314kts
14-Oct-20 16:54 33.636090 -114.080145 285 29956ft 309kts
14-Oct-20 16:54 33.650088 -114.165581 276 29959ft 307kts
14-Oct-20 16:56 33.662176 -114.286434 276 29960ft 306kts
14-Oct-20 16:56 33.670745 -114.373258 276 29961ft 305kts
14-Oct-20 16:57 33.681058 -114.478589 276 29962ft 305kts
14-Oct-20 16:58 33.691121 -114.582296 276 29963ft 305kts
14-Oct-20 16:59 33.701071 -114.685726 276 29966ft 305kts
14-Oct-20 17:00 33.710928 -114.789103 276 29967ft 305kts
14-Oct-20 17:01 33.720745 -114.893017 276 29968ft 305kts
14-Oct-20 17:02 33.730490 -114.996967 275 29964ft 305kts
14-Oct-20 17:03 33.740076 -115.100289 275 29943ft 307kts
14-Oct-20 17:04 33.749919 -115.204051 275 29920ft 310kts
14-Oct-20 17:05 33.760539 -115.308576 276 29918ft 311kts
14-Oct-20 17:06 33.771453 -115.416558 276 29011ft 333kts
14-Oct-20 17:07 33.783332 -115.531307 276 27773ft 336kts
14-Oct-20 17:08 33.794852 -115.645512 275 26294ft 334kts
14-Oct-20 17:09 33.805892 -115.759174 275 24788ft 332kts
14-Oct-20 17:10 33.816901 -115.870462 275 23913ft 313kts
14-Oct-20 17:11 33.827521 -115.975632 275 22944ft 318kts
14-Oct-20 17:12 33.838278 -116.083093 275 21503ft 316kts
14-Oct-20 17:13 33.847116 -116.186159 274 20912ft 289kts
14-Oct-20 17:14 33.854401 -116.281015 274 20934ft 273kts
14-Oct-20 17:15 33.862150 -116.377812 275 19929ft 289kts
14-Oct-20 17:16 33.872232 -116.483708 276 17083ft 326kts
14-Oct-20 17:17 33.886701 -116.591798 280 14972ft 311kts
14-Oct-20 17:18 33.902065 -116.688644 280 15005ft 276kts
14-Oct-20 17:19 33.916418 -116.779202 280 15033ft 268kts
14-Oct-20 17:20 33.930548 -116.868838 280 15056ft 266kts
14-Oct-20 17:21 33.945881 -116.965101 283 13052ft 300kts
14-Oct-20 17:22 33.967959 -117.057748 284 12095ft 294kts
14-Oct-20 17:23 33.990816 -117.153202 285 11054ft 277kts
14-Oct-20 17:24 34.012028 -117.241719 285 11049ft 263kts
14-Oct-20 17:25 34.032741 -117.328521 285 11008ft 261kts
14-Oct-20 17:26 34.053163 -117.414399 285 10903ft 265kts
14-Oct-20 17:27 34.074372 -117.506155 279 10012ft 269kts
14-Oct-20 17:28 34.088273 -117.595551 279 10019ft 261kts
14-Oct-20 17:29 34.101743 -117.682804 279 10025ft 259kts
14-Oct-20 17:30 34.115114 -117.769857 279 10031ft 259kts
14-Oct-20 17:31 34.128542 -117.857729 279 10034ft 259kts
14-Oct-20 17:32 34.141729 -117.944435 279 10018ft 260kts
14-Oct-20 17:33 34.149492 -118.034354 263 7998ft 253kts
14-Oct-20 17:34 34.143576 -118.112933 263 7986ft 222kts
14-Oct-20 17:35 34.150962 -118.188352 285 6743ft 230kts
14-Oct-20 17:36 34.170025 -118.262250 285 4283ft 219kts
14-Oct-20 17:37 34.178602 -118.329184 271 2460ft 179kts
14-Oct-20 17:38 34.183377 -118.384992 316 1646ft 127kts
14-Oct-20 17:39 34.197873 -118.365907 94 727ft 81kts
14-Oct-20 17:40 34.199858 -118.359203 294 719ft 10kts
14-Oct-20 17:41 34.200145 -118.359461 346 721ft 0kts
14-Oct-20 17:42 34.200145 -118.359461 346 721ft 0kts
14-Oct-20 17:43 34.200145 -118.359461 346 721ft 0kts
14-Oct-20 17:44 34.200145 -118.359461 346 721ft 0kts

Navigation Log

Ident Type
Flight plan parsing failed, navigation log unavailable